createdAt,value
2023-02-08T00:04:21.239Z,103958.63
2023-02-08T00:09:24.223Z,103961.44
2023-02-08T00:14:27.218Z,103951.69
2023-02-08T00:19:31.603Z,103965.00
2023-02-08T00:24:34.808Z,103961.81
2023-02-08T00:29:38.054Z,103965.84
2023-02-08T00:34:42.452Z,103964.91
2023-02-08T00:39:45.720Z,103947.38
2023-02-08T00:44:48.716Z,103942.72
2023-02-08T00:49:53.196Z,103937.16
2023-02-08T00:54:56.240Z,103929.00
2023-02-08T00:59:59.459Z,103933.00
2023-02-08T01:05:03.880Z,103916.69
2023-02-08T01:10:09.410Z,103929.28
2023-02-08T01:15:12.408Z,103928.38
2023-02-08T01:20:17.084Z,103919.47
2023-02-08T01:25:20.159Z,103917.91
2023-02-08T01:30:23.211Z,103931.50
2023-02-08T01:35:27.671Z,103933.69
2023-02-08T01:40:30.876Z,103944.91
2023-02-08T01:45:33.803Z,103940.25
2023-02-08T01:50:46.666Z,103946.66
2023-02-08T01:55:55.804Z,103933.63
2023-02-08T02:00:58.885Z,103928.28
2023-02-08T02:06:09.266Z,103933.94
2023-02-08T02:11:14.774Z,103914.75
2023-02-08T02:16:17.918Z,103921.34
2023-02-08T02:21:46.858Z,103910.84
2023-02-08T02:27:13.022Z,103912.97
2023-02-08T02:32:33.023Z,103912.56
2023-02-08T02:37:49.694Z,103906.53
2023-02-08T02:43:19.574Z,103901.59
2023-02-08T02:48:32.225Z,103886.66
2023-02-08T02:53:43.507Z,103887.91
2023-02-08T02:58:46.816Z,103883.94
2023-02-08T03:03:51.751Z,103894.34
2023-02-08T03:09:14.250Z,103893.66
2023-02-08T03:14:34.965Z,103895.84
2023-02-08T03:19:45.402Z,103891.91
2023-02-08T03:24:55.476Z,103891.91
2023-02-08T03:30:02.982Z,103893.31
2023-02-08T03:35:12.555Z,103892.69
2023-02-08T03:40:20.232Z,103890.34
2023-02-08T03:45:28.483Z,103896.19
2023-02-08T03:50:36.698Z,103896.47
2023-02-08T03:55:54.056Z,103887.59
2023-02-08T04:01:04.290Z,103887.91
2023-02-08T04:06:09.183Z,103887.75
2023-02-08T04:11:14.407Z,103899.59
2023-02-08T04:16:17.445Z,103898.03
2023-02-08T04:21:21.806Z,103902.53
2023-02-08T04:26:25.181Z,103900.25
2023-02-08T04:31:28.509Z,103883.72
2023-02-08T04:36:33.007Z,103895.22
2023-02-08T04:41:36.106Z,103893.84
2023-02-08T04:46:39.491Z,103905.56
2023-02-08T04:51:44.074Z,103891.13
2023-02-08T04:56:47.247Z,103875.75
2023-02-08T05:01:50.399Z,103885.13
2023-02-08T05:06:54.940Z,103881.91
2023-02-08T05:11:58.030Z,103869.53
2023-02-08T05:17:01.050Z,103857.19
2023-02-08T05:22:05.670Z,103856.25
2023-02-08T05:27:08.764Z,103855.81
2023-02-08T05:32:12.708Z,103858.56
2023-02-08T05:37:17.407Z,103867.53
2023-02-08T05:42:20.419Z,103870.53
2023-02-08T05:47:23.490Z,103864.94
2023-02-08T05:52:27.955Z,103880.53
2023-02-08T05:57:32.297Z,103881.03
2023-02-08T06:02:36.253Z,103879.66
2023-02-08T06:07:40.727Z,103864.56
2023-02-08T06:12:43.739Z,103870.59
2023-02-08T06:17:47.592Z,103865.72
2023-02-08T06:22:52.255Z,103847.06
2023-02-08T06:27:57.418Z,103864.28
2023-02-08T06:33:00.678Z,103860.06
2023-02-08T06:38:05.121Z,103861.94
2023-02-08T06:43:08.415Z,103860.31
2023-02-08T06:48:11.419Z,103862.88
2023-02-08T06:53:16.321Z,103877.50
2023-02-08T06:58:20.258Z,103871.00
2023-02-08T07:03:23.666Z,103872.66
2023-02-08T07:08:28.105Z,103877.06
2023-02-08T07:13:31.265Z,103880.59
2023-02-08T07:18:34.616Z,103879.22
2023-02-08T07:23:39.304Z,103871.88
2023-02-08T07:28:43.206Z,103857.63
2023-02-08T07:33:46.471Z,103857.06
2023-02-08T07:38:50.920Z,103860.00
2023-02-08T07:43:54.174Z,103867.66
2023-02-08T07:48:57.173Z,103873.19
2023-02-08T07:54:01.610Z,103870.63
2023-02-08T07:59:04.975Z,103882.72
2023-02-08T08:04:08.042Z,103870.28
2023-02-08T08:09:12.546Z,103857.28
2023-02-08T08:14:15.700Z,103861.16
2023-02-08T08:19:18.760Z,103860.78
2023-02-08T08:24:23.193Z,103864.13
2023-02-08T08:29:26.897Z,103870.16
2023-02-08T08:34:32.857Z,103855.53
2023-02-08T08:39:38.021Z,103850.66
2023-02-08T08:44:41.335Z,103862.41
2023-02-08T08:49:44.948Z,103852.44
2023-02-08T08:54:49.391Z,103848.84
2023-02-08T08:59:52.610Z,103838.16
2023-02-08T09:04:55.676Z,103821.44
2023-02-08T09:10:00.257Z,103830.69
2023-02-08T09:15:03.293Z,103824.97
2023-02-08T09:20:07.414Z,103814.78
2023-02-08T09:25:11.836Z,103824.72
2023-02-08T09:30:15.572Z,103833.34
2023-02-08T09:35:18.798Z,103828.59
2023-02-08T09:40:28.590Z,103838.88
2023-02-08T09:45:59.165Z,103845.13
2023-02-08T09:51:08.767Z,103849.50
2023-02-08T09:56:18.004Z,103855.44
2023-02-08T10:01:24.315Z,103850.22
2023-02-08T10:06:28.012Z,103842.34
2023-02-08T10:11:44.896Z,103843.22
2023-02-08T10:16:59.412Z,103825.63
2023-02-08T10:22:16.518Z,103834.22
2023-02-08T10:27:28.177Z,103847.63
2023-02-08T10:32:44.072Z,103830.34
2023-02-08T10:37:49.216Z,103852.94
2023-02-08T10:43:00.908Z,103850.78
2023-02-08T10:48:10.800Z,103841.47
2023-02-08T10:53:16.817Z,103839.78
2023-02-08T10:58:27.253Z,103839.75
2023-02-08T11:03:31.265Z,103823.31
2023-02-08T11:08:35.587Z,103819.75
2023-02-08T11:13:44.645Z,103811.22
2023-02-08T11:18:51.031Z,103801.03
2023-02-08T11:23:56.186Z,103795.25
2023-02-08T11:29:07.727Z,103814.06
2023-02-08T11:34:12.853Z,103810.59
2023-02-08T11:39:23.741Z,103801.38
2023-02-08T11:44:32.484Z,103801.16
2023-02-08T11:49:39.963Z,103794.53
2023-02-08T11:54:43.719Z,103790.13
2023-02-08T11:59:48.501Z,103787.59
2023-02-08T12:04:52.402Z,103776.59
2023-02-08T12:10:21.739Z,103766.06
2023-02-08T12:15:48.147Z,103754.53
2023-02-08T12:21:05.742Z,103734.31
2023-02-08T12:26:19.466Z,103731.28
2023-02-08T12:31:36.594Z,103719.91
2023-02-08T12:37:18.589Z,103711.13
2023-02-08T12:42:34.174Z,103713.13
2023-02-08T12:48:04.067Z,103696.78
2023-02-08T12:53:18.593Z,103685.88
2023-02-08T12:58:29.585Z,103661.09
2023-02-08T13:03:40.952Z,103675.50
2023-02-08T13:08:49.119Z,103655.94
2023-02-08T13:13:58.668Z,103660.13
2023-02-08T13:19:19.618Z,103645.91
2023-02-08T13:24:35.470Z,103638.03
2023-02-08T13:29:39.541Z,103632.88
2023-02-08T13:34:49.497Z,103635.25
2023-02-08T13:40:01.469Z,103634.69
2023-02-08T13:45:07.431Z,103627.06
2023-02-08T13:50:43.858Z,103621.63
2023-02-08T13:55:59.368Z,103610.00
2023-02-08T14:01:07.658Z,103603.66
2023-02-08T14:06:20.362Z,103607.72
2023-02-08T14:11:38.943Z,103605.03
2023-02-08T14:16:43.704Z,103580.06
2023-02-08T14:21:49.276Z,103588.84
2023-02-08T14:27:09.525Z,103584.16
2023-02-08T14:32:24.121Z,103567.38
2023-02-08T14:37:31.002Z,103572.91
2023-02-08T14:43:03.758Z,103559.66
2023-02-08T14:48:25.297Z,103555.47
2023-02-08T14:53:44.126Z,103538.53
2023-02-08T14:58:52.293Z,103537.88
2023-02-08T15:04:00.525Z,103524.53
2023-02-08T15:09:06.620Z,103492.53
2023-02-08T15:14:22.229Z,103493.97
2023-02-08T15:19:29.251Z,103484.00
2023-02-08T15:24:34.585Z,103480.59
2023-02-08T15:29:45.654Z,103463.13
2023-02-08T15:34:56.591Z,103465.75
2023-02-08T15:40:01.037Z,103457.09
2023-02-08T15:45:24.053Z,103459.97
2023-02-08T15:50:28.980Z,103458.28
2023-02-08T15:55:35.388Z,103457.63
2023-02-08T16:00:47.361Z,103450.44
2023-02-08T16:05:51.873Z,103446.09
2023-02-08T16:10:59.729Z,103453.00
2023-02-08T16:16:19.189Z,103442.38
2023-02-08T16:21:31.861Z,103435.41
2023-02-08T16:26:37.419Z,103431.69
2023-02-08T16:31:42.360Z,103422.16
2023-02-08T16:36:47.434Z,103425.06
2023-02-08T16:42:14.410Z,103410.53
2023-02-08T16:47:29.673Z,103414.06
2023-02-08T16:52:34.077Z,103420.97
2023-02-08T16:57:42.760Z,103413.47
2023-02-08T17:02:47.123Z,103412.34
2023-02-08T17:07:50.741Z,103407.56
2023-02-08T17:13:03.813Z,103408.53
2023-02-08T17:18:18.001Z,103415.31
2023-02-08T17:23:21.040Z,103403.41
2023-02-08T17:28:24.207Z,103412.63
2023-02-08T17:33:29.397Z,103403.75
2023-02-08T17:38:32.565Z,103404.38
2023-02-08T17:43:37.193Z,103402.06
2023-02-08T17:48:42.017Z,103401.28
2023-02-08T17:53:45.723Z,103389.31
2023-02-08T17:58:53.098Z,103381.78
2023-02-08T18:04:00.905Z,103391.25
2023-02-08T18:09:04.193Z,103393.97
2023-02-08T18:14:07.226Z,103396.59
2023-02-08T18:19:11.728Z,103406.59
2023-02-08T18:24:15.026Z,103400.38
2023-02-08T18:29:18.041Z,103380.63
2023-02-08T18:34:22.410Z,103379.19
2023-02-08T18:39:25.482Z,103373.91
2023-02-08T18:44:28.900Z,103358.97
2023-02-08T18:49:34.703Z,103357.97
2023-02-08T18:54:38.151Z,103344.09
2023-02-08T18:59:41.366Z,103366.88
2023-02-08T19:04:45.823Z,103360.53
2023-02-08T19:09:49.599Z,103371.09
2023-02-08T19:14:52.668Z,103369.13
2023-02-08T19:19:57.285Z,103369.81
2023-02-08T19:25:02.141Z,103374.00
2023-02-08T19:30:08.741Z,103368.53
2023-02-08T19:35:13.397Z,103363.25
2023-02-08T19:40:17.094Z,103345.63
2023-02-08T19:45:20.243Z,103342.19
2023-02-08T19:50:24.639Z,103345.94
2023-02-08T19:55:27.690Z,103335.59
2023-02-08T20:00:30.728Z,103339.69
2023-02-08T20:05:38.196Z,103345.25
2023-02-08T20:10:42.539Z,103348.75
2023-02-08T20:15:46.302Z,103345.03
2023-02-08T20:21:00.473Z,103334.34
2023-02-08T20:26:08.359Z,103325.69
2023-02-08T20:31:14.011Z,103348.31
2023-02-08T20:36:21.214Z,103332.09
2023-02-08T20:41:26.800Z,103332.50
2023-02-08T20:46:31.964Z,103344.00
2023-02-08T20:51:36.619Z,103342.50
2023-02-08T20:56:40.492Z,103334.56
2023-02-08T21:01:46.478Z,103330.63
2023-02-08T21:06:52.215Z,103332.72
2023-02-08T21:11:55.445Z,103324.22
2023-02-08T21:16:59.407Z,103314.09
2023-02-08T21:22:04.254Z,103312.88
2023-02-08T21:27:10.417Z,103304.31
2023-02-08T21:32:13.395Z,103299.00
2023-02-08T21:37:17.771Z,103313.97
2023-02-08T21:42:20.760Z,103308.06
2023-02-08T21:47:23.731Z,103300.00
2023-02-08T21:52:45.803Z,103296.13
2023-02-08T21:57:51.408Z,103283.22
2023-02-08T22:02:54.523Z,103291.22
2023-02-08T22:07:59.685Z,103289.56
2023-02-08T22:13:02.899Z,103288.25
2023-02-08T22:18:06.199Z,103278.88
2023-02-08T22:23:11.081Z,103273.72
2023-02-08T22:28:16.907Z,103270.94
2023-02-08T22:33:20.330Z,103277.44
2023-02-08T22:38:25.276Z,103270.03
2023-02-08T22:43:29.713Z,103270.97
2023-02-08T22:48:33.674Z,103260.81
2023-02-08T22:53:38.296Z,103243.28
2023-02-08T22:58:41.359Z,103241.09
2023-02-08T23:03:44.991Z,103242.56
2023-02-08T23:08:49.498Z,103254.44
2023-02-08T23:13:52.477Z,103256.09
2023-02-08T23:18:55.651Z,103239.47
2023-02-08T23:24:00.127Z,103245.94
2023-02-08T23:29:03.613Z,103236.75
2023-02-08T23:34:06.609Z,103242.66
2023-02-08T23:39:11.337Z,103240.47
2023-02-08T23:44:14.275Z,103236.03
2023-02-08T23:49:17.323Z,103230.84
2023-02-08T23:54:21.743Z,103225.72
2023-02-08T23:59:24.762Z,103229.38
